Time;durP1;ratioP1;P1;durP2;ratioP2;P2;SDS_P1;SDS_P2;PMS_P1;PMS_P2;Temp;Humidity;BMP_temperature;BMP_pressure;BME280_temperature;BME280_humidity;BME280_pressure;Samples;Min_cycle;Max_cycle;Signal;HPM_P1;HPM_P2
2022/12/02 00:00:20;;;;;;;59.92;27.80;;;3.70;99.90;;;;;;5048250;28;20051;-62
2022/12/02 00:02:46;;;;;;;65.40;27.02;;;2.40;99.90;;;;;;5048062;28;20041;-62
2022/12/02 00:05:17;;;;;;;57.78;26.25;;;2.40;99.90;;;;;;5048098;28;20052;-62
2022/12/02 00:07:44;;;;;;;58.08;27.98;;;2.40;99.90;;;;;;5048309;28;20080;-62
2022/12/02 00:10:33;;;;;;;59.50;27.05;;;2.40;99.90;;;;;;5048116;28;20037;-62
2022/12/02 00:13:18;;;;;;;54.92;26.45;;;2.40;99.90;;;;;;5047558;28;20041;-62
2022/12/02 00:15:46;;;;;;;56.17;24.83;;;2.40;99.90;;;;;;5047466;28;20809;-62
2022/12/02 00:18:14;;;;;;;61.30;26.33;;;2.40;99.90;;;;;;5047533;28;20040;-62
2022/12/02 00:20:40;;;;;;;54.20;25.65;;;2.40;99.90;;;;;;5047399;28;20071;-62
2022/12/02 00:23:07;;;;;;;57.40;26.17;;;2.40;99.90;;;;;;5045293;28;20098;-62
2022/12/02 00:25:33;;;;;;;56.35;25.05;;;2.40;99.90;;;;;;5047159;28;20060;-61
2022/12/02 00:27:59;;;;;;;53.38;24.25;;;2.40;99.90;;;;;;5046850;28;20091;-61
2022/12/02 00:30:25;;;;;;;52.58;24.08;;;2.40;99.90;;;;;;5047719;28;20365;-62
2022/12/02 00:32:51;;;;;;;49.30;22.73;;;2.40;99.90;;;;;;5046398;28;20479;-61
2022/12/02 00:35:17;;;;;;;48.70;23.65;;;2.40;99.90;;;;;;5047216;28;20063;-62
2022/12/02 00:37:43;;;;;;;47.45;21.50;;;2.40;99.90;;;;;;5045368;28;20087;-62
2022/12/02 00:40:09;;;;;;;46.17;21.45;;;2.40;99.90;;;;;;5047052;28;20079;-62
2022/12/02 00:42:35;;;;;;;44.30;20.33;;;2.40;99.90;;;;;;5047444;28;20088;-62
2022/12/02 00:47:45;;;;;;;45.03;21.90;;;2.40;99.90;;;;;;5047215;28;20067;-61
2022/12/02 00:50:11;;;;;;;49.88;21.75;;;2.60;99.90;;;;;;5047569;28;20040;-62
2022/12/02 00:52:37;;;;;;;48.25;20.85;;;2.40;99.90;;;;;;5047569;28;20422;-62
2022/12/02 00:55:03;;;;;;;49.08;21.45;;;2.30;99.90;;;;;;5047214;28;20037;-62
2022/12/02 00:57:29;;;;;;;48.47;20.50;;;2.40;99.90;;;;;;5046912;28;20664;-62
2022/12/02 00:59:54;;;;;;;50.22;21.85;;;2.40;99.90;;;;;;5046640;28;20040;-62
2022/12/02 01:02:20;;;;;;;44.53;20.52;;;2.40;99.90;;;;;;5046992;28;20144;-62
2022/12/02 01:04:45;;;;;;;40.30;19.10;;;2.40;99.90;;;;;;5046651;28;20441;-62
2022/12/02 01:07:11;;;;;;;42.38;18.98;;;2.30;99.90;;;;;;5044846;28;20048;-62
2022/12/02 01:09:37;;;;;;;38.90;18.95;;;2.30;99.90;;;;;;5046840;28;20147;-62
2022/12/02 01:12:03;;;;;;;28.55;14.00;;;2.30;99.90;;;;;;5046570;28;20128;-62
2022/12/02 01:14:28;;;;;;;30.25;13.98;;;2.30;99.90;;;;;;5046575;28;20389;-62
2022/12/02 01:16:54;;;;;;;24.45;12.02;;;2.30;99.90;;;;;;5045735;28;20041;-62
2022/12/02 01:19:20;;;;;;;18.63;9.35;;;2.30;99.90;;;;;;5045664;28;20044;-62
2022/12/02 01:21:45;;;;;;;21.15;10.77;;;2.20;99.90;;;;;;5046164;28;20044;-62
2022/12/02 01:24:11;;;;;;;22.23;10.80;;;2.20;99.90;;;;;;5046003;28;20091;-61
2022/12/02 01:26:37;;;;;;;22.70;13.13;;;2.20;99.90;;;;;;5045953;28;20061;-62
2022/12/02 01:29:02;;;;;;;24.77;11.80;;;2.20;99.90;;;;;;5046251;28;20148;-61
2022/12/02 01:31:28;;;;;;;25.15;12.60;;;2.20;99.90;;;;;;5046081;28;20041;-62
2022/12/02 01:33:54;;;;;;;22.05;10.45;;;2.20;99.90;;;;;;5044578;28;20048;-62
2022/12/02 01:36:19;;;;;;;23.27;11.13;;;2.10;99.90;;;;;;5045062;28;20080;-62
2022/12/02 01:38:45;;;;;;;27.70;12.88;;;2.20;99.90;;;;;;5043696;28;20088;-62
2022/12/02 01:41:11;;;;;;;24.50;12.38;;;2.20;99.90;;;;;;5044874;28;20076;-61
2022/12/02 01:43:37;;;;;;;28.92;12.68;;;2.20;99.90;;;;;;5045552;28;20505;-61
2022/12/02 01:46:03;;;;;;;28.52;14.25;;;2.20;99.90;;;;;;5045210;28;20051;-61
2022/12/02 01:48:29;;;;;;;27.27;11.95;;;2.10;99.90;;;;;;5045423;28;20131;-62
2022/12/02 01:50:55;;;;;;;27.85;13.52;;;2.10;99.90;;;;;;5045787;28;20045;-62
2022/12/02 01:53:22;;;;;;;30.95;14.57;;;2.10;99.90;;;;;;5045611;28;20077;-62
2022/12/02 01:55:48;;;;;;;29.27;14.05;;;2.10;99.90;;;;;;5045835;28;20049;-62
2022/12/02 01:58:15;;;;;;;30.60;15.10;;;2.10;99.90;;;;;;5045667;28;20051;-62
2022/12/02 02:00:41;;;;;;;37.42;15.20;;;2.10;99.90;;;;;;5045828;28;20048;-62
2022/12/02 02:03:06;;;;;;;32.08;13.00;;;3.10;99.90;;;;;;5044366;28;20053;-62
2022/12/02 02:05:33;;;;;;;30.38;14.57;;;2.10;99.90;;;;;;5045702;28;20045;-62
2022/12/02 02:08:09;;;;;;;32.05;15.52;;;2.10;99.90;;;;;;5046138;28;20043;-62
2022/12/02 02:10:36;;;;;;;27.10;14.30;;;2.00;99.90;;;;;;5045916;28;20482;-62
2022/12/02 02:13:03;;;;;;;29.10;14.43;;;2.00;99.90;;;;;;5045715;28;20041;-62
2022/12/02 02:15:29;;;;;;;32.35;14.63;;;2.00;99.90;;;;;;5045269;28;20501;-62
2022/12/02 02:17:56;;;;;;;29.90;14.35;;;2.00;99.90;;;;;;5045438;28;20036;-62
2022/12/02 02:20:24;;;;;;;28.10;13.68;;;1.90;99.90;;;;;;5045169;28;20041;-62
2022/12/02 02:23:03;;;;;;;30.70;13.65;;;1.90;99.90;;;;;;5045334;28;20116;-62
2022/12/02 02:25:29;;;;;;;30.77;14.40;;;1.90;99.90;;;;;;5045658;28;20091;-62
2022/12/02 02:27:57;;;;;;;24.67;13.68;;;1.80;99.90;;;;;;5046159;28;20045;-62
2022/12/02 02:30:25;;;;;;;26.08;13.35;;;1.80;99.90;;;;;;5045511;28;20041;-62
2022/12/02 02:32:51;;;;;;;30.70;15.60;;;1.80;99.90;;;;;;5045597;28;20071;-62
2022/12/02 02:35:18;;;;;;;36.50;15.73;;;1.80;99.90;;;;;;5045538;28;20051;-62
2022/12/02 02:37:45;;;;;;;34.92;15.00;;;1.80;99.90;;;;;;5040113;28;20064;-62
2022/12/02 02:40:15;;;;;;;36.88;15.50;;;1.70;99.90;;;;;;5045449;28;20049;-62
2022/12/02 02:42:42;;;;;;;42.33;17.10;;;1.80;99.90;;;;;;5045841;28;20048;-62
2022/12/02 02:45:09;;;;;;;44.25;16.73;;;1.70;99.90;;;;;;5045559;28;20041;-62
2022/12/02 02:47:34;;;;;;;50.63;19.00;;;1.70;99.90;;;;;;5045713;28;20045;-62
2022/12/02 02:50:00;;;;;;;51.63;21.17;;;1.80;99.90;;;;;;5045562;28;20045;-62
2022/12/02 02:52:26;;;;;;;53.75;19.85;;;1.70;99.90;;;;;;5045424;28;20045;-62
2022/12/02 02:54:52;;;;;;;50.40;21.38;;;1.70;99.90;;;;;;5045342;28;20045;-62
2022/12/02 02:57:17;;;;;;;52.40;22.38;;;1.70;99.90;;;;;;5049017;28;20049;-62
2022/12/02 02:59:44;;;;;;;57.05;23.38;;;1.70;99.90;;;;;;5049361;28;20095;-62
2022/12/02 03:02:12;;;;;;;56.55;23.50;;;1.80;99.90;;;;;;5049375;28;20081;-62
2022/12/02 03:04:39;;;;;;;57.00;23.40;;;1.70;99.90;;;;;;5049810;28;20510;-62
2022/12/02 03:07:05;;;;;;;58.58;24.73;;;1.80;99.90;;;;;;5049638;28;20697;-62
2022/12/02 03:09:31;;;;;;;51.63;23.52;;;1.70;99.90;;;;;;5049144;28;20049;-62
2022/12/02 03:11:58;;;;;;;58.65;23.50;;;1.70;99.90;;;;;;5049417;28;20342;-62
2022/12/02 03:14:25;;;;;;;53.80;23.13;;;1.70;99.90;;;;;;5048691;28;20041;-62
2022/12/02 03:16:52;;;;;;;50.72;21.70;;;1.70;99.90;;;;;;5048749;28;20149;-62
2022/12/02 03:19:18;;;;;;;54.63;21.77;;;1.60;99.90;;;;;;5048533;28;20053;-62
2022/12/02 03:21:45;;;;;;;53.17;22.88;;;1.50;99.90;;;;;;5048925;28;20047;-62
2022/12/02 03:24:11;;;;;;;52.90;22.92;;;1.60;99.90;;;;;;5048930;28;20076;-62
2022/12/02 03:26:37;;;;;;;58.10;23.25;;;1.50;99.90;;;;;;5046837;28;20597;-62
2022/12/02 03:29:04;;;;;;;49.83;22.13;;;1.50;99.90;;;;;;5048515;28;20063;-62
2022/12/02 03:31:32;;;;;;;54.05;22.77;;;3.80;99.90;;;;;;5048245;28;20145;-62
2022/12/02 03:33:58;;;;;;;49.58;21.35;;;1.40;99.90;;;;;;5048150;28;20670;-62
2022/12/02 03:36:24;;;;;;;56.80;22.50;;;1.40;99.90;;;;;;5046873;28;20064;-62
2022/12/02 03:38:49;;;;;;;55.10;22.45;;;1.40;99.90;;;;;;5048150;28;20513;-62
2022/12/02 03:41:15;;;;;;;52.22;21.80;;;1.40;99.90;;;;;;5048091;28;20049;-62
2022/12/02 03:43:41;;;;;;;50.65;20.60;;;1.40;99.90;;;;;;5048104;28;20033;-62
2022/12/02 03:46:08;;;;;;;49.95;20.67;;;1.30;99.90;;;;;;5048591;28;20106;-62
2022/12/02 03:48:35;;;;;;;54.20;21.55;;;1.30;99.90;;;;;;5048359;28;20126;-62
2022/12/02 03:51:01;;;;;;;54.05;21.10;;;1.30;99.90;;;;;;5047970;28;20052;-62
2022/12/02 03:53:28;;;;;;;54.35;19.92;;;1.30;99.90;;;;;;5046658;28;20044;-62
2022/12/02 03:55:54;;;;;;;54.05;20.20;;;1.30;99.90;;;;;;5046654;28;20517;-62
2022/12/02 03:58:19;;;;;;;49.38;21.50;;;1.30;99.90;;;;;;5047886;28;20041;-62
2022/12/02 04:00:45;;;;;;;46.60;19.52;;;1.30;99.90;;;;;;5047797;28;20044;-62
2022/12/02 04:03:11;;;;;;;52.88;21.10;;;1.30;99.90;;;;;;5047843;28;20045;-62
2022/12/02 04:05:36;;;;;;;55.80;22.17;;;1.30;99.90;;;;;;5047362;28;20403;-62
2022/12/02 04:08:02;;;;;;;57.08;22.77;;;1.30;99.90;;;;;;5047499;28;20374;-62
2022/12/02 04:10:28;;;;;;;56.45;24.23;;;1.60;99.90;;;;;;5048048;28;20083;-62
2022/12/02 04:12:54;;;;;;;60.35;22.95;;;1.30;99.90;;;;;;5048088;28;20047;-62
2022/12/02 04:15:19;;;;;;;57.67;23.10;;;1.30;99.90;;;;;;5048011;28;20767;-62
2022/12/02 04:17:45;;;;;;;57.33;24.45;;;1.20;99.90;;;;;;5047190;28;20056;-62
2022/12/02 04:20:11;;;;;;;60.67;24.35;;;1.20;99.90;;;;;;5047486;28;20052;-62
2022/12/02 04:22:37;;;;;;;56.90;24.08;;;0.70;99.90;;;;;;5047801;28;20095;-62
2022/12/02 04:25:03;;;;;;;60.47;23.65;;;1.20;99.90;;;;;;5047736;28;20453;-62
2022/12/02 04:27:29;;;;;;;61.65;23.95;;;1.10;99.90;;;;;;5047790;28;20092;-62
2022/12/02 04:29:55;;;;;;;65.22;23.45;;;1.10;99.90;;;;;;5047748;28;20136;-62
2022/12/02 04:32:20;;;;;;;55.72;22.65;;;1.10;99.90;;;;;;5046116;28;20045;-62
2022/12/02 04:34:46;;;;;;;62.83;24.08;;;1.10;99.90;;;;;;5047586;28;20120;-62
2022/12/02 04:37:12;;;;;;;65.43;26.33;;;1.00;99.90;;;;;;5047265;28;20041;-62
2022/12/02 04:39:37;;;;;;;59.63;24.70;;;1.00;99.90;;;;;;5047509;28;20037;-62
2022/12/02 04:42:03;;;;;;;62.58;25.17;;;1.00;99.90;;;;;;5047530;28;20133;-62
2022/12/02 04:44:29;;;;;;;69.97;26.55;;;1.00;99.90;;;;;;5047218;28;20391;-62
2022/12/02 04:46:54;;;;;;;62.08;23.38;;;1.00;99.90;;;;;;5045685;28;20041;-62
2022/12/02 04:49:20;;;;;;;65.57;24.50;;;0.90;99.90;;;;;;5047237;28;20041;-62
2022/12/02 04:51:46;;;;;;;64.13;23.67;;;0.90;99.90;;;;;;5046628;28;20451;-62
2022/12/02 04:54:11;;;;;;;63.05;25.50;;;0.90;99.90;;;;;;5046810;28;20091;-62
2022/12/02 04:56:37;;;;;;;63.50;24.08;;;0.90;99.90;;;;;;5046620;28;20048;-62
2022/12/02 04:59:03;;;;;;;58.60;24.23;;;0.90;99.90;;;;;;5046797;28;20450;-62
2022/12/02 05:01:28;;;;;;;67.22;24.65;;;0.90;99.90;;;;;;5046405;28;20044;-62
2022/12/02 05:03:54;;;;;;;63.92;25.88;;;0.90;99.90;;;;;;5045302;28;20051;-62
2022/12/02 05:06:19;;;;;;;69.00;26.05;;;0.90;99.90;;;;;;5045265;28;20605;-62
2022/12/02 05:08:45;;;;;;;70.93;28.20;;;0.90;99.90;;;;;;5047060;28;20036;-62
2022/12/02 05:11:11;;;;;;;73.70;27.30;;;0.90;99.90;;;;;;5047308;28;20045;-62
2022/12/02 05:13:36;;;;;;;66.63;24.92;;;0.90;99.90;;;;;;5047284;28;20099;-62
2022/12/02 05:16:02;;;;;;;70.57;26.65;;;0.80;99.90;;;;;;5045537;28;20063;-62
2022/12/02 05:18:28;;;;;;;66.18;26.25;;;0.90;99.90;;;;;;5046958;28;20563;-62
2022/12/02 05:20:53;;;;;;;70.70;27.35;;;0.90;99.90;;;;;;5046167;28;20045;-62
2022/12/02 05:23:19;;;;;;;71.68;26.48;;;0.80;99.90;;;;;;5044711;28;20056;-62
2022/12/02 05:25:45;;;;;;;69.38;26.33;;;0.80;99.90;;;;;;5045945;28;20061;-62
2022/12/02 05:28:10;;;;;;;70.05;25.88;;;0.90;99.90;;;;;;5046450;28;20041;-62
2022/12/02 05:30:36;;;;;;;75.15;26.88;;;0.80;99.90;;;;;;5046000;28;20788;-62
2022/12/02 05:33:02;;;;;;;75.05;28.63;;;0.80;99.90;;;;;;5046272;28;20590;-62
2022/12/02 05:35:27;;;;;;;69.75;25.42;;;0.80;99.90;;;;;;5046408;28;20738;-62
2022/12/02 05:37:53;;;;;;;65.53;25.42;;;0.80;99.90;;;;;;5046090;28;20041;-62
2022/12/02 05:40:18;;;;;;;71.40;27.08;;;0.80;99.90;;;;;;5045905;28;20043;-62
2022/12/02 05:42:44;;;;;;;64.00;25.70;;;0.80;99.90;;;;;;5044365;28;20124;-62
2022/12/02 05:45:17;;;;;;;66.63;27.90;;;0.90;99.90;;;;;;5045681;28;20130;-62
2022/12/02 05:47:46;;;;;;;70.57;26.13;;;0.80;99.90;;;;;;5044384;28;20151;-62
2022/12/02 05:50:13;;;;;;;72.80;25.73;;;0.90;99.90;;;;;;5044718;28;20141;-62
2022/12/02 05:52:40;;;;;;;71.13;26.55;;;1.00;99.90;;;;;;5046134;28;20045;-62
2022/12/02 05:55:15;;;;;;;75.25;25.38;;;1.00;99.90;;;;;;5045254;28;20056;-62
2022/12/02 05:57:41;;;;;;;75.85;27.58;;;1.00;99.90;;;;;;5045745;28;20045;-62
2022/12/02 06:00:16;;;;;;;74.32;26.80;;;1.00;99.90;;;;;;5046238;28;20506;-62
2022/12/02 06:03:05;;;;;;;66.35;24.95;;;1.00;99.90;;;;;;5045255;28;20045;-62
2022/12/02 06:05:37;;;;;;;72.28;25.52;;;1.00;99.90;;;;;;5044196;28;20065;-62
2022/12/02 06:08:15;;;;;;;72.53;25.67;;;1.00;99.90;;;;;;5045791;28;20067;-62
2022/12/02 06:10:47;;;;;;;71.07;25.52;;;1.10;99.90;;;;;;5045965;28;20060;-62
2022/12/02 06:13:17;;;;;;;78.07;27.55;;;1.80;99.90;;;;;;5045970;28;20075;-62
2022/12/02 06:15:43;;;;;;;71.28;27.60;;;1.20;99.90;;;;;;5045885;28;20079;-62
2022/12/02 06:18:13;;;;;;;70.82;26.05;;;1.20;99.90;;;;;;5046569;28;20447;-62
2022/12/02 06:20:39;;;;;;;72.68;26.95;;;1.20;99.90;;;;;;5046382;28;20186;-62
2022/12/02 06:23:12;;;;;;;67.38;27.13;;;1.20;99.90;;;;;;5046349;28;20076;-62
2022/12/02 06:25:38;;;;;;;68.88;25.38;;;1.30;99.90;;;;;;5046084;28;20559;-62
2022/12/02 06:28:35;;;;;;;77.65;28.25;;;1.30;99.90;;;;;;5044341;28;20068;-62
2022/12/02 06:31:15;;;;;;;66.68;25.80;;;1.30;99.90;;;;;;5048037;28;20048;-62
2022/12/02 06:33:42;;;;;;;72.55;27.08;;;1.30;99.90;;;;;;5050005;28;20051;-62
2022/12/02 06:36:16;;;;;;;70.25;26.10;;;1.30;99.90;;;;;;5048163;28;20106;-63
2022/12/02 06:39:01;;;;;;;69.15;26.45;;;1.40;99.90;;;;;;5049745;28;20053;-62
2022/12/02 06:41:30;;;;;;;72.38;28.20;;;1.40;99.90;;;;;;5049615;28;20537;-62
2022/12/02 06:46:45;;;;;;;69.57;27.08;;;1.40;99.90;;;;;;5049315;28;20072;-62
2022/12/02 06:49:24;;;;;;;64.85;25.65;;;1.40;99.90;;;;;;5049334;28;20045;-62
2022/12/02 06:51:56;;;;;;;71.10;25.35;;;1.40;99.90;;;;;;5049167;28;20099;-62
2022/12/02 06:54:27;;;;;;;68.45;25.67;;;1.50;99.90;;;;;;5047562;28;20225;-62
2022/12/02 06:56:54;;;;;;;74.15;26.75;;;1.50;99.90;;;;;;5048891;28;20491;-62
2022/12/02 06:59:22;;;;;;;69.53;25.25;;;1.50;99.90;;;;;;5049347;28;20604;-62
2022/12/02 07:01:52;;;;;;;75.13;27.42;;;1.50;99.90;;;;;;5064589;28;20102;-62
2022/12/02 07:04:31;;;;;;;74.13;28.27;;;1.50;99.90;;;;;;5049360;28;20037;-62
2022/12/02 07:07:28;;;;;;;73.70;27.13;;;1.60;99.90;;;;;;5048864;28;20102;-62
2022/12/02 07:10:05;;;;;;;80.28;27.60;;;1.60;99.90;;;;;;5048266;28;20048;-62
2022/12/02 07:12:41;;;;;;;71.20;26.38;;;1.60;99.90;;;;;;5046437;28;20403;-62
2022/12/02 07:15:28;;;;;;;73.60;26.75;;;1.60;99.90;;;;;;5047778;28;20044;-62
2022/12/02 07:18:08;;;;;;;79.57;27.00;;;1.60;99.90;;;;;;5048408;28;20041;-62
2022/12/02 07:20:37;;;;;;;71.82;25.20;;;1.60;99.90;;;;;;5048332;28;20044;-62
2022/12/02 07:23:19;;;;;;;70.93;25.52;;;1.60;99.90;;;;;;5047874;28;20041;-62
2022/12/02 07:25:51;;;;;;;72.97;27.83;;;1.60;99.90;;;;;;5047761;28;20165;-62
2022/12/02 07:28:33;;;;;;;79.03;29.15;;;1.60;99.90;;;;;;5047819;28;20048;-62
2022/12/02 07:31:17;;;;;;;82.72;28.20;;;1.60;99.90;;;;;;5048341;28;20124;-62
2022/12/02 07:33:43;;;;;;;77.28;29.15;;;1.60;99.90;;;;;;5048733;28;20135;-62
2022/12/02 07:36:09;;;;;;;81.95;28.33;;;1.60;99.90;;;;;;5048378;28;20116;-62
2022/12/02 07:38:34;;;;;;;84.50;29.98;;;2.10;99.90;;;;;;5048212;28;20091;-62
2022/12/02 07:41:00;;;;;;;77.88;26.33;;;1.60;99.90;;;;;;5047923;28;20084;-62
2022/12/02 07:43:25;;;;;;;76.95;28.30;;;1.60;99.90;;;;;;5046295;28;20045;-62
2022/12/02 07:45:51;;;;;;;78.10;29.23;;;1.60;99.90;;;;;;5048083;28;20064;-62
2022/12/02 07:48:17;;;;;;;85.60;29.52;;;1.60;99.90;;;;;;5029865;28;20060;-62
2022/12/02 07:50:42;;;;;;;80.65;29.63;;;1.60;99.90;;;;;;5048568;28;20040;-62
2022/12/02 07:53:08;;;;;;;75.43;28.65;;;1.60;99.90;;;;;;5048128;28;20048;-61
2022/12/02 07:55:34;;;;;;;81.75;30.08;;;1.60;99.90;;;;;;5048088;28;20045;-62
2022/12/02 07:57:59;;;;;;;79.25;28.33;;;3.10;99.90;;;;;;5046597;28;20045;-62
2022/12/02 08:00:25;;;;;;;67.53;25.92;;;1.70;99.90;;;;;;5046565;28;20148;-62
2022/12/02 08:02:52;;;;;;;70.40;26.10;;;1.70;99.90;;;;;;5047709;28;20045;-62
2022/12/02 08:05:17;;;;;;;79.47;29.23;;;1.70;99.90;;;;;;5047838;28;20048;-62
2022/12/02 08:07:43;;;;;;;77.40;28.85;;;1.70;99.90;;;;;;5047332;28;20052;-62
2022/12/02 08:10:09;;;;;;;70.13;24.58;;;1.70;99.90;;;;;;5047376;28;20120;-62
2022/12/02 08:12:35;;;;;;;64.47;23.05;;;1.70;99.90;;;;;;5046790;28;20608;-62
2022/12/02 08:15:01;;;;;;;70.07;25.63;;;1.70;99.90;;;;;;5047430;28;20037;-62
2022/12/02 08:17:26;;;;;;;60.03;23.98;;;1.70;99.90;;;;;;5047272;28;20048;-62
2022/12/02 08:19:52;;;;;;;65.78;21.85;;;1.70;99.90;;;;;;5047504;28;20094;-62
2022/12/02 08:22:17;;;;;;;61.28;22.10;;;1.70;99.90;;;;;;5045702;28;20040;-62
2022/12/02 08:24:43;;;;;;;62.97;23.83;;;1.70;99.90;;;;;;5047459;28;20045;-62
2022/12/02 08:27:09;;;;;;;56.25;21.75;;;1.70;99.90;;;;;;5046742;28;20057;-62
2022/12/02 08:29:34;;;;;;;67.85;24.27;;;1.70;99.90;;;;;;5046984;28;20041;-62
2022/12/02 08:32:00;;;;;;;69.53;24.13;;;1.70;99.90;;;;;;5047423;28;20390;-62
2022/12/02 08:34:26;;;;;;;67.65;22.90;;;1.70;99.90;;;;;;5047062;28;20577;-62
2022/12/02 08:36:51;;;;;;;64.32;24.27;;;1.70;99.90;;;;;;5046909;28;20053;-63
2022/12/02 08:39:17;;;;;;;71.07;23.23;;;1.70;99.90;;;;;;5046560;28;20055;-62
2022/12/02 08:41:42;;;;;;;63.25;23.70;;;1.70;99.90;;;;;;5046771;28;20044;-62
2022/12/02 08:44:08;;;;;;;66.13;23.35;;;1.70;99.90;;;;;;5046332;28;20033;-62
2022/12/02 08:46:35;;;;;;;68.78;24.77;;;1.70;99.90;;;;;;5046578;28;20040;-62
2022/12/02 08:49:01;;;;;;;72.15;25.20;;;1.70;99.90;;;;;;5045648;28;20115;-62
2022/12/02 08:51:27;;;;;;;73.75;24.42;;;1.70;99.90;;;;;;5047003;28;20949;-62
2022/12/02 08:53:53;;;;;;;72.07;27.50;;;1.80;99.90;;;;;;5046662;28;20048;-62
2022/12/02 08:56:18;;;;;;;79.13;26.02;;;1.80;99.90;;;;;;5046202;28;20052;-62
2022/12/02 08:58:44;;;;;;;85.95;25.80;;;1.90;99.90;;;;;;5046944;28;20041;-62
2022/12/02 09:01:10;;;;;;;66.30;24.73;;;1.90;99.90;;;;;;5046524;28;20779;-62
2022/12/02 09:03:36;;;;;;;73.88;23.60;;;1.90;99.90;;;;;;5046942;28;20251;-62
2022/12/02 09:06:02;;;;;;;68.90;25.08;;;1.90;99.90;;;;;;5046559;28;20041;-62
2022/12/02 09:08:27;;;;;;;73.32;25.10;;;1.90;99.90;;;;;;5046775;28;20129;-62
2022/12/02 09:10:53;;;;;;;73.00;26.25;;;1.90;99.90;;;;;;5045555;28;20080;-62
2022/12/02 09:13:19;;;;;;;80.13;26.50;;;1.90;99.90;;;;;;5046722;28;20036;-62
2022/12/02 09:15:44;;;;;;;84.03;28.17;;;1.90;99.90;;;;;;5046560;28;20804;-61
2022/12/02 09:18:10;;;;;;;82.75;27.27;;;1.90;99.90;;;;;;5046101;28;20040;-60
2022/12/02 09:20:36;;;;;;;80.35;24.40;;;3.50;99.90;;;;;;5046345;28;20127;-61
2022/12/02 09:23:01;;;;;;;89.82;27.65;;;2.70;99.90;;;;;;5046108;28;20650;-61
2022/12/02 09:25:27;;;;;;;80.93;27.48;;;2.00;99.90;;;;;;5045547;28;20061;-60
2022/12/02 09:27:53;;;;;;;84.45;30.88;;;1.90;99.90;;;;;;5024254;28;20803;-59
2022/12/02 09:30:19;;;;;;;95.88;28.00;;;1.90;99.90;;;;;;5044677;28;20098;-59
2022/12/02 09:32:45;;;;;;;87.97;30.02;;;1.90;99.90;;;;;;5043073;28;20102;-59
2022/12/02 09:35:11;;;;;;;81.82;27.90;;;2.00;99.90;;;;;;5043320;28;20463;-60
2022/12/02 09:37:36;;;;;;;76.78;27.70;;;2.30;99.90;;;;;;5044952;28;20060;-59
2022/12/02 09:40:03;;;;;;;74.18;23.73;;;2.00;99.90;;;;;;5044466;28;20041;-59
2022/12/02 09:42:28;;;;;;;72.63;25.17;;;2.60;99.90;;;;;;5044519;28;20045;-59
2022/12/02 09:44:54;;;;;;;73.85;26.23;;;2.10;99.90;;;;;;5043813;28;20049;-60
2022/12/02 09:47:21;;;;;;;75.05;26.45;;;4.00;99.90;;;;;;5041260;28;20052;-60
2022/12/02 09:49:47;;;;;;;69.07;25.92;;;2.20;99.90;;;;;;5040672;28;20061;-52
2022/12/02 09:52:19;;;;;;;64.88;23.33;;;3.80;99.90;;;;;;5044588;28;20084;-58
2022/12/02 09:54:45;;;;;;;66.45;24.95;;;2.30;99.90;;;;;;5043881;28;20072;-56
2022/12/02 09:57:16;;;;;;;62.90;23.52;;;3.20;99.90;;;;;;5042431;28;20128;-58
2022/12/02 09:59:42;;;;;;;59.08;23.98;;;2.30;99.90;;;;;;5041829;28;20049;-62
2022/12/02 10:02:19;;;;;;;58.60;22.05;;;2.30;99.90;;;;;;5041850;28;20053;-57
2022/12/02 10:04:44;;;;;;;52.25;22.02;;;3.40;99.90;;;;;;5046149;28;20056;-55
2022/12/02 10:07:10;;;;;;;53.33;21.75;;;2.30;99.90;;;;;;5047679;28;20044;-58
2022/12/02 10:09:36;;;;;;;58.13;23.00;;;2.30;99.90;;;;;;5048826;28;20056;-56
2022/12/02 10:12:01;;;;;;;56.10;22.15;;;2.30;99.90;;;;;;5048588;28;20041;-55
2022/12/02 10:14:27;;;;;;;60.40;25.73;;;2.30;99.90;;;;;;5048732;28;20102;-57
2022/12/02 10:16:53;;;;;;;67.85;25.80;;;2.20;99.90;;;;;;5047870;28;20063;-57
2022/12/02 10:19:20;;;;;;;60.80;24.45;;;2.20;99.90;;;;;;5048464;28;20067;-56
2022/12/02 10:21:46;;;;;;;59.08;25.10;;;3.50;99.90;;;;;;5048142;28;20052;-56
2022/12/02 10:24:12;;;;;;;62.05;26.02;;;4.50;99.90;;;;;;5048092;28;20565;-57
2022/12/02 10:26:43;;;;;;;61.50;25.92;;;4.30;99.90;;;;;;5045144;28;20148;-58
2022/12/02 10:29:38;;;;;;;64.90;25.90;;;2.90;99.90;;;;;;5020184;28;20049;-51
2022/12/02 10:32:17;;;;;;;67.65;25.70;;;2.20;99.90;;;;;;5048094;28;20506;-56
2022/12/02 10:34:59;;;;;;;70.03;25.23;;;2.20;99.90;;;;;;5046842;28;20049;-55
2022/12/02 10:37:25;;;;;;;62.75;27.23;;;2.20;99.90;;;;;;5048278;28;20127;-54
2022/12/02 10:40:08;;;;;;;65.13;26.15;;;2.20;99.90;;;;;;5046671;28;20084;-53
2022/12/02 10:42:33;;;;;;;68.10;27.88;;;2.20;99.90;;;;;;5046919;28;20050;-53
2022/12/02 10:45:16;;;;;;;71.15;27.48;;;2.40;99.90;;;;;;5047164;28;20140;-50
2022/12/02 10:47:41;;;;;;;67.65;25.95;;;2.20;99.90;;;;;;5046510;28;20055;-53
2022/12/02 10:50:22;;;;;;;73.45;27.42;;;2.20;99.90;;;;;;5047758;28;20041;-55
2022/12/02 10:52:54;;;;;;;76.93;30.65;;;2.10;99.90;;;;;;5046389;28;20554;-59
2022/12/02 10:55:21;;;;;;;;;;;2.10;99.90;;;;;;5046956;28;20041;-59
2022/12/02 10:57:48;;;;;;;66.53;27.27;;;2.10;99.90;;;;;;5046410;28;20282;-56
2022/12/02 11:00:14;;;;;;;75.70;30.63;;;2.10;99.90;;;;;;5046905;28;20056;-55
2022/12/02 11:02:51;;;;;;;75.72;28.65;;;2.00;99.90;;;;;;5046243;28;20099;-51
2022/12/02 11:05:23;;;;;;;74.28;29.05;;;2.00;99.90;;;;;;5047165;28;20052;-48
2022/12/02 11:08:06;;;;;;;75.93;28.90;;;2.00;99.90;;;;;;5046993;28;20574;-55
2022/12/02 11:10:43;;;;;;;71.38;28.73;;;2.00;99.90;;;;;;5045796;28;20045;-55
2022/12/02 11:13:11;;;;;;;72.20;30.50;;;1.90;99.90;;;;;;5046918;28;20111;-55
2022/12/02 11:15:47;;;;;;;77.72;32.38;;;1.90;99.90;;;;;;5046391;28;20055;-57
2022/12/02 11:18:22;;;;;;;75.38;31.90;;;1.90;99.90;;;;;;5062603;28;20931;-55
2022/12/02 11:20:53;;;;;;;75.15;30.08;;;2.10;99.90;;;;;;5046517;28;20049;-54
2022/12/02 11:23:26;;;;;;;69.70;31.02;;;1.90;99.90;;;;;;5046113;28;20506;-56
2022/12/02 11:25:54;;;;;;;75.90;32.50;;;1.90;99.90;;;;;;5045598;28;20769;-52
2022/12/02 11:28:28;;;;;;;81.20;33.38;;;1.90;99.90;;;;;;5020771;28;20068;-44
2022/12/02 11:31:09;;;;;;;75.70;32.95;;;1.90;99.90;;;;;;5046160;28;20155;-47
2022/12/02 11:33:47;;;;;;;74.32;33.67;;;1.90;99.90;;;;;;5046007;28;20041;-52
2022/12/02 11:36:21;;;;;;;80.80;33.38;;;5.10;99.90;;;;;;5046582;28;20048;-43
2022/12/02 11:38:51;;;;;;;81.22;32.95;;;1.80;99.90;;;;;;5046308;28;20059;-44
2022/12/02 11:41:27;;;;;;;78.60;32.75;;;1.90;99.90;;;;;;5046127;28;20074;-56
2022/12/02 11:44:08;;;;;;;69.10;30.27;;;2.10;99.90;;;;;;5046163;28;20556;-46
2022/12/02 11:46:54;;;;;;;75.43;31.73;;;1.90;99.90;;;;;;5047523;28;20403;-54
2022/12/02 11:49:26;;;;;;;72.07;31.77;;;1.90;99.90;;;;;;5047281;28;20044;-55
2022/12/02 11:52:00;;;;;;;76.23;31.23;;;1.90;99.90;;;;;;5047729;28;20083;-56
2022/12/02 11:54:27;;;;;;;75.40;32.97;;;1.90;99.90;;;;;;5047495;28;20354;-56
2022/12/02 11:56:53;;;;;;;68.60;29.42;;;3.20;99.90;;;;;;5044516;28;20672;-56
2022/12/02 11:59:22;;;;;;;72.57;31.70;;;1.70;99.90;;;;;;5043535;28;20465;-55
2022/12/02 12:01:48;;;;;;;73.20;30.30;;;2.00;99.90;;;;;;5045202;28;20055;-55
2022/12/02 12:04:26;;;;;;;71.60;30.23;;;2.00;99.90;;;;;;5044972;28;20052;-55
2022/12/02 12:06:59;;;;;;;71.90;30.50;;;3.00;99.90;;;;;;5045189;28;20040;-54
2022/12/02 12:09:28;;;;;;;75.97;32.08;;;1.90;99.90;;;;;;5045336;28;20395;-55
2022/12/02 12:12:16;;;;;;;69.75;31.70;;;1.90;99.90;;;;;;5049693;28;20068;-56
2022/12/02 12:14:56;;;;;;;77.63;33.20;;;1.90;99.90;;;;;;5047071;28;20125;-55
2022/12/02 12:17:48;;;;;;;76.57;32.85;;;1.90;99.90;;;;;;5045238;28;20076;-59
2022/12/02 12:20:14;;;;;;;69.70;30.17;;;1.90;99.90;;;;;;5042081;28;20053;-56
2022/12/02 12:22:40;;;;;;;66.25;30.20;;;1.90;99.90;;;;;;5044375;28;20115;-56
2022/12/02 12:25:29;;;;;;;68.45;30.25;;;1.90;99.90;;;;;;5042987;28;20688;-56
2022/12/02 12:27:54;;;;;;;67.63;29.95;;;2.00;99.90;;;;;;5017681;28;20140;-52
2022/12/02 12:30:20;;;;;;;65.22;29.95;;;2.00;99.90;;;;;;5044432;28;20125;-55
2022/12/02 12:32:46;;;;;;;67.00;30.58;;;1.90;99.90;;;;;;5044007;28;20076;-51
2022/12/02 12:35:11;;;;;;;67.32;29.20;;;1.90;99.90;;;;;;5044087;28;20072;-50
2022/12/02 12:37:37;;;;;;;62.58;28.15;;;2.00;99.90;;;;;;5044336;28;20051;-53
2022/12/02 12:40:03;;;;;;;61.15;29.10;;;2.00;99.90;;;;;;5044880;28;20044;-54
2022/12/02 12:42:28;;;;;;;59.70;29.15;;;2.00;99.90;;;;;;5045421;28;20048;-52
2022/12/02 12:44:54;;;;;;;63.50;29.30;;;2.00;99.90;;;;;;5044911;28;20550;-51
2022/12/02 12:47:20;;;;;;;65.20;27.70;;;2.00;99.90;;;;;;5045141;28;20045;-51
2022/12/02 12:49:45;;;;;;;63.45;28.83;;;2.00;99.90;;;;;;5043583;28;20055;-50